sensor_id;sensor_type;location;lat;lon;timestamp;temperature;humidity
37456;DHT22;23316;50.718;7.328;2023-08-24T00:00:48;23.20;51.90
37456;DHT22;23316;50.718;7.328;2023-08-24T00:03:16;23.20;51.90
37456;DHT22;23316;50.718;7.328;2023-08-24T00:05:43;23.20;52.10
37456;DHT22;23316;50.718;7.328;2023-08-24T00:08:11;23.10;52.10
37456;DHT22;23316;50.718;7.328;2023-08-24T00:10:38;23.10;52.20
37456;DHT22;23316;50.718;7.328;2023-08-24T00:13:06;23.10;52.30
37456;DHT22;23316;50.718;7.328;2023-08-24T00:15:33;23.10;52.40
37456;DHT22;23316;50.718;7.328;2023-08-24T00:18:01;23.10;52.50
37456;DHT22;23316;50.718;7.328;2023-08-24T00:20:30;23.10;52.50
37456;DHT22;23316;50.718;7.328;2023-08-24T00:22:58;23.00;52.60
37456;DHT22;23316;50.718;7.328;2023-08-24T00:25:26;23.00;52.60
37456;DHT22;23316;50.718;7.328;2023-08-24T00:27:53;23.00;52.60
37456;DHT22;23316;50.718;7.328;2023-08-24T00:30:21;23.00;52.70
37456;DHT22;23316;50.718;7.328;2023-08-24T00:32:48;22.90;52.70
37456;DHT22;23316;50.718;7.328;2023-08-24T00:35:15;22.90;52.80
37456;DHT22;23316;50.718;7.328;2023-08-24T00:37:44;22.90;52.80
37456;DHT22;23316;50.718;7.328;2023-08-24T00:40:11;22.90;52.90
37456;DHT22;23316;50.718;7.328;2023-08-24T00:42:39;22.90;53.00
37456;DHT22;23316;50.718;7.328;2023-08-24T00:45:07;22.90;53.00
37456;DHT22;23316;50.718;7.328;2023-08-24T00:47:36;22.80;53.00
37456;DHT22;23316;50.718;7.328;2023-08-24T00:50:04;22.90;53.10
37456;DHT22;23316;50.718;7.328;2023-08-24T00:52:32;22.80;53.10
37456;DHT22;23316;50.718;7.328;2023-08-24T00:55:02;22.80;53.20
37456;DHT22;23316;50.718;7.328;2023-08-24T00:57:29;22.80;53.30
37456;DHT22;23316;50.718;7.328;2023-08-24T00:59:57;22.80;53.30
37456;DHT22;23316;50.718;7.328;2023-08-24T01:02:26;22.70;53.30
37456;DHT22;23316;50.718;7.328;2023-08-24T01:05:07;22.80;53.40
37456;DHT22;23316;50.718;7.328;2023-08-24T01:07:37;22.70;53.40
37456;DHT22;23316;50.718;7.328;2023-08-24T01:10:07;22.70;53.40
37456;DHT22;23316;50.718;7.328;2023-08-24T01:12:50;22.60;53.40
37456;DHT22;23316;50.718;7.328;2023-08-24T01:15:27;22.70;53.60
37456;DHT22;23316;50.718;7.328;2023-08-24T01:18:01;22.60;53.60
37456;DHT22;23316;50.718;7.328;2023-08-24T01:20:32;22.60;53.60
37456;DHT22;23316;50.718;7.328;2023-08-24T01:23:18;22.60;53.60
37456;DHT22;23316;50.718;7.328;2023-08-24T01:25:52;22.50;53.60
37456;DHT22;23316;50.718;7.328;2023-08-24T01:28:21;22.60;53.70
37456;DHT22;23316;50.718;7.328;2023-08-24T01:30:49;22.50;53.70
37456;DHT22;23316;50.718;7.328;2023-08-24T01:33:16;22.50;53.80
37456;DHT22;23316;50.718;7.328;2023-08-24T01:35:43;22.50;53.90
37456;DHT22;23316;50.718;7.328;2023-08-24T01:38:10;22.50;53.90
37456;DHT22;23316;50.718;7.328;2023-08-24T01:40:48;22.50;54.10
37456;DHT22;23316;50.718;7.328;2023-08-24T01:43:18;22.50;54.20
37456;DHT22;23316;50.718;7.328;2023-08-24T01:45:49;22.50;54.20
37456;DHT22;23316;50.718;7.328;2023-08-24T01:48:17;22.40;54.30
37456;DHT22;23316;50.718;7.328;2023-08-24T01:50:45;22.40;54.30
37456;DHT22;23316;50.718;7.328;2023-08-24T01:53:13;22.40;54.30
37456;DHT22;23316;50.718;7.328;2023-08-24T01:55:40;22.40;54.30
37456;DHT22;23316;50.718;7.328;2023-08-24T01:58:08;22.40;54.50
37456;DHT22;23316;50.718;7.328;2023-08-24T02:00:35;22.40;54.50
37456;DHT22;23316;50.718;7.328;2023-08-24T02:03:04;22.40;54.50
37456;DHT22;23316;50.718;7.328;2023-08-24T02:05:31;22.30;54.50
37456;DHT22;23316;50.718;7.328;2023-08-24T02:07:59;22.30;54.60
37456;DHT22;23316;50.718;7.328;2023-08-24T02:10:26;22.30;54.60
37456;DHT22;23316;50.718;7.328;2023-08-24T02:12:53;22.30;54.60
37456;DHT22;23316;50.718;7.328;2023-08-24T02:15:21;22.30;54.70
37456;DHT22;23316;50.718;7.328;2023-08-24T02:17:48;22.20;54.70
37456;DHT22;23316;50.718;7.328;2023-08-24T02:20:17;22.20;54.70
37456;DHT22;23316;50.718;7.328;2023-08-24T02:22:44;22.20;54.80
37456;DHT22;23316;50.718;7.328;2023-08-24T02:25:11;22.20;54.80
37456;DHT22;23316;50.718;7.328;2023-08-24T02:27:38;22.20;54.80
37456;DHT22;23316;50.718;7.328;2023-08-24T02:30:07;22.20;54.90
37456;DHT22;23316;50.718;7.328;2023-08-24T02:32:34;22.20;55.00
37456;DHT22;23316;50.718;7.328;2023-08-24T02:35:01;22.20;55.00
37456;DHT22;23316;50.718;7.328;2023-08-24T02:37:30;22.20;55.10
37456;DHT22;23316;50.718;7.328;2023-08-24T02:39:57;22.10;55.10
37456;DHT22;23316;50.718;7.328;2023-08-24T02:42:24;22.10;55.10
37456;DHT22;23316;50.718;7.328;2023-08-24T02:44:52;22.20;55.20
37456;DHT22;23316;50.718;7.328;2023-08-24T02:47:19;22.10;55.10
37456;DHT22;23316;50.718;7.328;2023-08-24T02:49:46;22.10;55.20
37456;DHT22;23316;50.718;7.328;2023-08-24T02:52:14;22.20;55.30
37456;DHT22;23316;50.718;7.328;2023-08-24T02:54:42;22.10;55.20
37456;DHT22;23316;50.718;7.328;2023-08-24T02:57:10;22.20;55.30
37456;DHT22;23316;50.718;7.328;2023-08-24T02:59:37;22.20;55.30
37456;DHT22;23316;50.718;7.328;2023-08-24T03:02:05;22.20;55.30
37456;DHT22;23316;50.718;7.328;2023-08-24T03:04:32;22.20;55.30
37456;DHT22;23316;50.718;7.328;2023-08-24T03:07:00;22.20;55.40
37456;DHT22;23316;50.718;7.328;2023-08-24T03:09:27;22.20;55.40
37456;DHT22;23316;50.718;7.328;2023-08-24T03:11:56;22.20;55.40
37456;DHT22;23316;50.718;7.328;2023-08-24T03:14:23;22.20;55.40
37456;DHT22;23316;50.718;7.328;2023-08-24T03:16:50;22.20;55.40
37456;DHT22;23316;50.718;7.328;2023-08-24T03:19:17;22.20;55.40
37456;DHT22;23316;50.718;7.328;2023-08-24T03:21:45;22.20;55.40
37456;DHT22;23316;50.718;7.328;2023-08-24T03:24:12;22.20;55.40
37456;DHT22;23316;50.718;7.328;2023-08-24T03:26:39;22.20;55.40
37456;DHT22;23316;50.718;7.328;2023-08-24T03:29:08;22.20;55.50
37456;DHT22;23316;50.718;7.328;2023-08-24T03:31:35;22.20;55.50
37456;DHT22;23316;50.718;7.328;2023-08-24T03:34:02;22.20;55.50
37456;DHT22;23316;50.718;7.328;2023-08-24T03:36:30;22.20;55.50
37456;DHT22;23316;50.718;7.328;2023-08-24T03:38:57;22.20;55.50
37456;DHT22;23316;50.718;7.328;2023-08-24T03:41:24;22.20;55.50
37456;DHT22;23316;50.718;7.328;2023-08-24T03:43:52;22.20;55.50
37456;DHT22;23316;50.718;7.328;2023-08-24T03:46:20;22.20;55.50
37456;DHT22;23316;50.718;7.328;2023-08-24T03:48:47;22.20;55.50
37456;DHT22;23316;50.718;7.328;2023-08-24T03:51:15;22.20;55.50
37456;DHT22;23316;50.718;7.328;2023-08-24T03:53:42;22.20;55.50
37456;DHT22;23316;50.718;7.328;2023-08-24T03:56:09;22.20;55.50
37456;DHT22;23316;50.718;7.328;2023-08-24T03:58:36;22.20;55.50
37456;DHT22;23316;50.718;7.328;2023-08-24T04:01:04;22.20;55.50
37456;DHT22;23316;50.718;7.328;2023-08-24T04:03:34;22.20;55.60
37456;DHT22;23316;50.718;7.328;2023-08-24T04:06:01;22.20;55.70
37456;DHT22;23316;50.718;7.328;2023-08-24T04:08:28;22.20;55.60
37456;DHT22;23316;50.718;7.328;2023-08-24T04:10:55;22.20;55.70
37456;DHT22;23316;50.718;7.328;2023-08-24T04:13:23;22.10;55.60
37456;DHT22;23316;50.718;7.328;2023-08-24T04:15:50;22.10;55.60
37456;DHT22;23316;50.718;7.328;2023-08-24T04:18:17;22.10;55.70
37456;DHT22;23316;50.718;7.328;2023-08-24T04:20:46;22.10;55.80
37456;DHT22;23316;50.718;7.328;2023-08-24T04:23:13;22.10;55.90
37456;DHT22;23316;50.718;7.328;2023-08-24T04:25:42;22.10;56.00
37456;DHT22;23316;50.718;7.328;2023-08-24T04:28:10;22.10;56.00
37456;DHT22;23316;50.718;7.328;2023-08-24T04:30:37;22.10;56.00
37456;DHT22;23316;50.718;7.328;2023-08-24T04:33:05;22.10;56.10
37456;DHT22;23316;50.718;7.328;2023-08-24T04:35:34;22.10;56.10
37456;DHT22;23316;50.718;7.328;2023-08-24T04:38:03;22.10;56.10
37456;DHT22;23316;50.718;7.328;2023-08-24T04:40:38;22.10;56.10
37456;DHT22;23316;50.718;7.328;2023-08-24T04:43:10;22.10;56.10
37456;DHT22;23316;50.718;7.328;2023-08-24T04:45:37;22.10;56.10
37456;DHT22;23316;50.718;7.328;2023-08-24T04:48:05;22.10;56.20
37456;DHT22;23316;50.718;7.328;2023-08-24T04:50:32;22.10;56.20
37456;DHT22;23316;50.718;7.328;2023-08-24T04:52:59;22.10;56.30
37456;DHT22;23316;50.718;7.328;2023-08-24T04:55:28;22.10;56.30
37456;DHT22;23316;50.718;7.328;2023-08-24T04:57:55;22.10;56.40
37456;DHT22;23316;50.718;7.328;2023-08-24T05:00:22;22.10;56.30
37456;DHT22;23316;50.718;7.328;2023-08-24T05:02:50;22.10;56.40
37456;DHT22;23316;50.718;7.328;2023-08-24T05:05:17;22.10;56.40
37456;DHT22;23316;50.718;7.328;2023-08-24T05:07:45;22.10;56.40
37456;DHT22;23316;50.718;7.328;2023-08-24T05:10:12;22.10;56.50
37456;DHT22;23316;50.718;7.328;2023-08-24T05:12:41;22.10;56.50
37456;DHT22;23316;50.718;7.328;2023-08-24T05:15:08;22.10;56.60
37456;DHT22;23316;50.718;7.328;2023-08-24T05:17:36;22.10;56.60
37456;DHT22;23316;50.718;7.328;2023-08-24T05:20:04;22.20;56.60
37456;DHT22;23316;50.718;7.328;2023-08-24T05:22:31;22.10;56.60
37456;DHT22;23316;50.718;7.328;2023-08-24T05:24:59;22.20;56.70
37456;DHT22;23316;50.718;7.328;2023-08-24T05:27:26;22.10;56.70
37456;DHT22;23316;50.718;7.328;2023-08-24T05:29:54;22.20;56.80
37456;DHT22;23316;50.718;7.328;2023-08-24T05:32:22;22.20;56.80
37456;DHT22;23316;50.718;7.328;2023-08-24T05:34:49;22.10;56.70
37456;DHT22;23316;50.718;7.328;2023-08-24T05:37:16;22.10;56.70
37456;DHT22;23316;50.718;7.328;2023-08-24T05:39:43;22.10;56.80
37456;DHT22;23316;50.718;7.328;2023-08-24T05:42:11;22.10;56.90
37456;DHT22;23316;50.718;7.328;2023-08-24T05:44:38;22.10;56.90
37456;DHT22;23316;50.718;7.328;2023-08-24T05:47:07;22.10;56.90
37456;DHT22;23316;50.718;7.328;2023-08-24T05:49:34;22.10;56.90
37456;DHT22;23316;50.718;7.328;2023-08-24T05:52:01;22.10;56.90
37456;DHT22;23316;50.718;7.328;2023-08-24T05:54:29;22.20;57.10
37456;DHT22;23316;50.718;7.328;2023-08-24T05:56:56;22.20;57.00
37456;DHT22;23316;50.718;7.328;2023-08-24T05:59:26;22.20;57.10
37456;DHT22;23316;50.718;7.328;2023-08-24T06:01:53;22.20;57.10
37456;DHT22;23316;50.718;7.328;2023-08-24T06:04:22;22.20;57.10
37456;DHT22;23316;50.718;7.328;2023-08-24T06:06:49;22.20;57.20
37456;DHT22;23316;50.718;7.328;2023-08-24T06:09:16;22.20;57.10
37456;DHT22;23316;50.718;7.328;2023-08-24T06:11:44;22.20;57.60
37456;DHT22;23316;50.718;7.328;2023-08-24T06:14:11;22.20;57.20
37456;DHT22;23316;50.718;7.328;2023-08-24T06:16:38;22.20;57.20
37456;DHT22;23316;50.718;7.328;2023-08-24T06:19:05;22.20;57.20
37456;DHT22;23316;50.718;7.328;2023-08-24T06:21:34;22.20;57.10
37456;DHT22;23316;50.718;7.328;2023-08-24T06:27:23;22.30;57.30
37456;DHT22;23316;50.718;7.328;2023-08-24T06:29:50;22.30;57.00
37456;DHT22;23316;50.718;7.328;2023-08-24T06:32:18;22.30;57.10
37456;DHT22;23316;50.718;7.328;2023-08-24T06:34:45;22.30;57.10
37456;DHT22;23316;50.718;7.328;2023-08-24T06:37:13;22.20;57.00
37456;DHT22;23316;50.718;7.328;2023-08-24T06:39:40;22.30;57.20
37456;DHT22;23316;50.718;7.328;2023-08-24T06:42:08;22.30;57.20
37456;DHT22;23316;50.718;7.328;2023-08-24T06:44:35;22.30;57.20
37456;DHT22;23316;50.718;7.328;2023-08-24T06:47:02;22.30;57.20
37456;DHT22;23316;50.718;7.328;2023-08-24T06:49:30;22.30;57.20
37456;DHT22;23316;50.718;7.328;2023-08-24T06:51:57;22.30;57.30
37456;DHT22;23316;50.718;7.328;2023-08-24T06:54:25;22.30;57.30
37456;DHT22;23316;50.718;7.328;2023-08-24T06:56:53;22.30;57.40
37456;DHT22;23316;50.718;7.328;2023-08-24T06:59:20;22.30;57.90
37456;DHT22;23316;50.718;7.328;2023-08-24T07:01:47;22.40;57.60
37456;DHT22;23316;50.718;7.328;2023-08-24T07:04:14;22.40;57.60
37456;DHT22;23316;50.718;7.328;2023-08-24T07:06:41;22.40;57.60
37456;DHT22;23316;50.718;7.328;2023-08-24T07:09:09;22.50;57.70
37456;DHT22;23316;50.718;7.328;2023-08-24T07:11:38;22.50;57.70
37456;DHT22;23316;50.718;7.328;2023-08-24T07:14:05;22.50;57.70
37456;DHT22;23316;50.718;7.328;2023-08-24T07:16:32;22.60;57.90
37456;DHT22;23316;50.718;7.328;2023-08-24T07:19:00;22.60;57.90
37456;DHT22;23316;50.718;7.328;2023-08-24T07:21:28;22.60;57.90
37456;DHT22;23316;50.718;7.328;2023-08-24T07:23:56;22.70;57.90
37456;DHT22;23316;50.718;7.328;2023-08-24T07:26:23;22.70;58.50
37456;DHT22;23316;50.718;7.328;2023-08-24T07:28:53;22.70;58.00
37456;DHT22;23316;50.718;7.328;2023-08-24T07:31:20;22.80;57.90
37456;DHT22;23316;50.718;7.328;2023-08-24T07:33:48;22.80;57.80
37456;DHT22;23316;50.718;7.328;2023-08-24T07:36:15;22.90;58.30
37456;DHT22;23316;50.718;7.328;2023-08-24T07:38:45;22.90;57.70
37456;DHT22;23316;50.718;7.328;2023-08-24T07:41:12;23.00;57.70
37456;DHT22;23316;50.718;7.328;2023-08-24T07:43:39;23.00;57.50
37456;DHT22;23316;50.718;7.328;2023-08-24T07:46:08;23.00;57.30
37456;DHT22;23316;50.718;7.328;2023-08-24T07:48:36;23.10;57.30
37456;DHT22;23316;50.718;7.328;2023-08-24T07:51:03;23.10;57.20
37456;DHT22;23316;50.718;7.328;2023-08-24T07:53:30;23.20;57.30
37456;DHT22;23316;50.718;7.328;2023-08-24T07:55:59;23.20;57.30
37456;DHT22;23316;50.718;7.328;2023-08-24T07:58:27;23.20;57.30
37456;DHT22;23316;50.718;7.328;2023-08-24T08:00:54;23.30;57.40
37456;DHT22;23316;50.718;7.328;2023-08-24T08:03:23;23.40;57.50
37456;DHT22;23316;50.718;7.328;2023-08-24T08:05:50;23.40;57.30
37456;DHT22;23316;50.718;7.328;2023-08-24T08:08:17;23.40;57.10
37456;DHT22;23316;50.718;7.328;2023-08-24T08:10:45;23.50;57.20
37456;DHT22;23316;50.718;7.328;2023-08-24T08:13:12;23.50;57.00
37456;DHT22;23316;50.718;7.328;2023-08-24T08:15:39;23.60;57.00
37456;DHT22;23316;50.718;7.328;2023-08-24T08:18:06;23.70;56.90
37456;DHT22;23316;50.718;7.328;2023-08-24T08:20:35;23.70;56.70
37456;DHT22;23316;50.718;7.328;2023-08-24T08:23:02;23.80;56.60
37456;DHT22;23316;50.718;7.328;2023-08-24T08:25:30;23.80;56.70
37456;DHT22;23316;50.718;7.328;2023-08-24T08:27:57;23.90;56.70
37456;DHT22;23316;50.718;7.328;2023-08-24T08:30:24;24.00;56.70
37456;DHT22;23316;50.718;7.328;2023-08-24T08:32:52;24.00;56.50
37456;DHT22;23316;50.718;7.328;2023-08-24T08:35:22;24.00;56.40
37456;DHT22;23316;50.718;7.328;2023-08-24T08:37:50;24.10;56.30
37456;DHT22;23316;50.718;7.328;2023-08-24T08:40:19;24.20;56.30
37456;DHT22;23316;50.718;7.328;2023-08-24T08:42:47;24.20;56.40
37456;DHT22;23316;50.718;7.328;2023-08-24T08:45:15;24.30;56.30
37456;DHT22;23316;50.718;7.328;2023-08-24T08:47:42;24.40;56.20
37456;DHT22;23316;50.718;7.328;2023-08-24T08:50:10;24.50;56.30
37456;DHT22;23316;50.718;7.328;2023-08-24T08:52:38;24.50;56.20
37456;DHT22;23316;50.718;7.328;2023-08-24T08:55:07;24.60;56.20
37456;DHT22;23316;50.718;7.328;2023-08-24T08:57:36;24.70;56.10
37456;DHT22;23316;50.718;7.328;2023-08-24T09:00:07;24.70;56.10
37456;DHT22;23316;50.718;7.328;2023-08-24T09:02:36;24.80;55.80
37456;DHT22;23316;50.718;7.328;2023-08-24T09:05:04;24.90;55.60
37456;DHT22;23316;50.718;7.328;2023-08-24T09:07:33;25.00;55.80
37456;DHT22;23316;50.718;7.328;2023-08-24T09:10:01;25.00;55.60
37456;DHT22;23316;50.718;7.328;2023-08-24T09:12:32;25.10;55.30
37456;DHT22;23316;50.718;7.328;2023-08-24T09:15:00;25.20;55.30
37456;DHT22;23316;50.718;7.328;2023-08-24T09:17:27;25.20;55.20
37456;DHT22;23316;50.718;7.328;2023-08-24T09:19:58;25.30;55.30
37456;DHT22;23316;50.718;7.328;2023-08-24T09:22:26;25.40;55.40
37456;DHT22;23316;50.718;7.328;2023-08-24T09:24:53;25.40;55.30
37456;DHT22;23316;50.718;7.328;2023-08-24T09:27:22;25.50;55.30
37456;DHT22;23316;50.718;7.328;2023-08-24T09:29:51;25.50;55.00
37456;DHT22;23316;50.718;7.328;2023-08-24T09:32:22;25.60;55.20
37456;DHT22;23316;50.718;7.328;2023-08-24T09:34:50;25.70;55.40
37456;DHT22;23316;50.718;7.328;2023-08-24T09:37:17;25.70;55.20
37456;DHT22;23316;50.718;7.328;2023-08-24T09:39:46;25.80;55.20
37456;DHT22;23316;50.718;7.328;2023-08-24T09:42:14;25.80;54.70
37456;DHT22;23316;50.718;7.328;2023-08-24T09:44:43;25.90;54.60
37456;DHT22;23316;50.718;7.328;2023-08-24T09:47:13;26.00;54.20
37456;DHT22;23316;50.718;7.328;2023-08-24T09:49:41;26.00;54.30
37456;DHT22;23316;50.718;7.328;2023-08-24T09:52:08;26.10;54.00
37456;DHT22;23316;50.718;7.328;2023-08-24T09:54:37;26.10;54.00
37456;DHT22;23316;50.718;7.328;2023-08-24T09:57:06;26.20;54.00
37456;DHT22;23316;50.718;7.328;2023-08-24T09:59:35;26.20;53.30
37456;DHT22;23316;50.718;7.328;2023-08-24T10:02:15;26.30;53.30
37456;DHT22;23316;50.718;7.328;2023-08-24T10:04:42;26.30;52.70
37456;DHT22;23316;50.718;7.328;2023-08-24T10:07:13;26.40;52.70
37456;DHT22;23316;50.718;7.328;2023-08-24T10:09:52;26.50;52.30
37456;DHT22;23316;50.718;7.328;2023-08-24T10:12:26;26.50;51.90
37456;DHT22;23316;50.718;7.328;2023-08-24T10:14:59;26.60;51.50
37456;DHT22;23316;50.718;7.328;2023-08-24T10:17:29;26.70;51.50
37456;DHT22;23316;50.718;7.328;2023-08-24T10:19:58;26.70;51.70
37456;DHT22;23316;50.718;7.328;2023-08-24T10:22:27;26.80;51.70
37456;DHT22;23316;50.718;7.328;2023-08-24T10:24:54;26.90;51.80
37456;DHT22;23316;50.718;7.328;2023-08-24T10:27:23;26.90;51.40
37456;DHT22;23316;50.718;7.328;2023-08-24T10:29:50;27.00;51.00
37456;DHT22;23316;50.718;7.328;2023-08-24T10:32:19;27.00;50.70
37456;DHT22;23316;50.718;7.328;2023-08-24T10:34:48;27.10;50.40
37456;DHT22;23316;50.718;7.328;2023-08-24T10:37:16;27.10;50.10
37456;DHT22;23316;50.718;7.328;2023-08-24T10:39:44;27.20;50.10
37456;DHT22;23316;50.718;7.328;2023-08-24T10:42:13;27.20;50.40
37456;DHT22;23316;50.718;7.328;2023-08-24T10:44:44;27.30;50.00
37456;DHT22;23316;50.718;7.328;2023-08-24T10:47:14;27.30;50.10
37456;DHT22;23316;50.718;7.328;2023-08-24T10:49:41;27.40;50.50
37456;DHT22;23316;50.718;7.328;2023-08-24T10:52:20;27.40;50.60
37456;DHT22;23316;50.718;7.328;2023-08-24T10:54:48;27.50;50.40
37456;DHT22;23316;50.718;7.328;2023-08-24T10:57:21;27.50;50.60
37456;DHT22;23316;50.718;7.328;2023-08-24T10:59:58;27.60;50.60
37456;DHT22;23316;50.718;7.328;2023-08-24T11:02:26;27.60;49.90
37456;DHT22;23316;50.718;7.328;2023-08-24T11:05:06;27.70;50.10
37456;DHT22;23316;50.718;7.328;2023-08-24T11:07:48;27.70;49.80
37456;DHT22;23316;50.718;7.328;2023-08-24T11:10:16;27.70;49.70
37456;DHT22;23316;50.718;7.328;2023-08-24T11:13:09;27.80;49.80
37456;DHT22;23316;50.718;7.328;2023-08-24T11:15:38;27.80;49.50
37456;DHT22;23316;50.718;7.328;2023-08-24T11:18:20;27.80;49.50
37456;DHT22;23316;50.718;7.328;2023-08-24T11:20:49;27.90;49.10
37456;DHT22;23316;50.718;7.328;2023-08-24T11:23:19;27.90;49.20
37456;DHT22;23316;50.718;7.328;2023-08-24T11:25:47;27.90;49.20
37456;DHT22;23316;50.718;7.328;2023-08-24T11:28:19;27.90;49.30
37456;DHT22;23316;50.718;7.328;2023-08-24T11:34:09;28.00;49.00
37456;DHT22;23316;50.718;7.328;2023-08-24T11:36:43;28.00;49.50
37456;DHT22;23316;50.718;7.328;2023-08-24T11:39:21;28.00;49.10
37456;DHT22;23316;50.718;7.328;2023-08-24T11:41:57;28.00;49.30
37456;DHT22;23316;50.718;7.328;2023-08-24T11:44:25;28.10;49.30
37456;DHT22;23316;50.718;7.328;2023-08-24T11:46:52;28.10;49.40
37456;DHT22;23316;50.718;7.328;2023-08-24T11:49:19;28.10;49.40
37456;DHT22;23316;50.718;7.328;2023-08-24T11:51:47;28.20;49.30
37456;DHT22;23316;50.718;7.328;2023-08-24T11:54:16;28.20;49.40
37456;DHT22;23316;50.718;7.328;2023-08-24T11:56:45;28.30;49.70
37456;DHT22;23316;50.718;7.328;2023-08-24T11:59:14;28.30;49.60
37456;DHT22;23316;50.718;7.328;2023-08-24T12:01:41;28.30;49.50
37456;DHT22;23316;50.718;7.328;2023-08-24T12:04:09;28.40;49.00
37456;DHT22;23316;50.718;7.328;2023-08-24T12:06:38;28.40;48.90
37456;DHT22;23316;50.718;7.328;2023-08-24T12:09:06;28.50;48.50
37456;DHT22;23316;50.718;7.328;2023-08-24T12:11:35;28.50;48.20
37456;DHT22;23316;50.718;7.328;2023-08-24T12:14:05;28.50;47.60
37456;DHT22;23316;50.718;7.328;2023-08-24T12:16:35;28.50;47.50
37456;DHT22;23316;50.718;7.328;2023-08-24T12:19:07;28.50;47.50
37456;DHT22;23316;50.718;7.328;2023-08-24T12:21:35;28.50;47.20
37456;DHT22;23316;50.718;7.328;2023-08-24T12:24:03;28.50;47.20
37456;DHT22;23316;50.718;7.328;2023-08-24T12:26:31;28.50;47.60
37456;DHT22;23316;50.718;7.328;2023-08-24T12:29:05;28.50;48.10
37456;DHT22;23316;50.718;7.328;2023-08-24T12:31:33;28.50;48.00
37456;DHT22;23316;50.718;7.328;2023-08-24T12:34:01;28.50;47.50
37456;DHT22;23316;50.718;7.328;2023-08-24T12:36:29;28.50;47.00
37456;DHT22;23316;50.718;7.328;2023-08-24T12:38:57;28.50;46.60
37456;DHT22;23316;50.718;7.328;2023-08-24T12:41:25;28.50;46.30
37456;DHT22;23316;50.718;7.328;2023-08-24T12:43:52;28.50;46.30
37456;DHT22;23316;50.718;7.328;2023-08-24T12:46:21;28.40;46.40
37456;DHT22;23316;50.718;7.328;2023-08-24T12:48:48;28.40;46.40
37456;DHT22;23316;50.718;7.328;2023-08-24T12:51:16;28.40;46.30
37456;DHT22;23316;50.718;7.328;2023-08-24T12:53:43;28.40;46.10
37456;DHT22;23316;50.718;7.328;2023-08-24T12:56:10;28.40;46.00
37456;DHT22;23316;50.718;7.328;2023-08-24T12:58:37;28.30;46.10
37456;DHT22;23316;50.718;7.328;2023-08-24T13:01:05;28.30;46.20
37456;DHT22;23316;50.718;7.328;2023-08-24T13:03:33;28.30;46.50
37456;DHT22;23316;50.718;7.328;2023-08-24T13:06:01;28.20;47.20
37456;DHT22;23316;50.718;7.328;2023-08-24T13:08:30;28.20;47.20
37456;DHT22;23316;50.718;7.328;2023-08-24T13:10:57;28.20;47.40
37456;DHT22;23316;50.718;7.328;2023-08-24T13:13:24;28.20;47.90
37456;DHT22;23316;50.718;7.328;2023-08-24T13:15:52;28.20;48.50
37456;DHT22;23316;50.718;7.328;2023-08-24T13:18:19;28.10;48.70
37456;DHT22;23316;50.718;7.328;2023-08-24T13:20:47;28.10;49.00
37456;DHT22;23316;50.718;7.328;2023-08-24T13:23:15;28.10;49.00
37456;DHT22;23316;50.718;7.328;2023-08-24T13:25:42;28.00;49.00
37456;DHT22;23316;50.718;7.328;2023-08-24T13:28:09;28.00;49.20
37456;DHT22;23316;50.718;7.328;2023-08-24T13:30:37;27.90;49.10
37456;DHT22;23316;50.718;7.328;2023-08-24T13:33:04;27.90;49.30
37456;DHT22;23316;50.718;7.328;2023-08-24T13:35:31;27.90;49.30
37456;DHT22;23316;50.718;7.328;2023-08-24T13:38:00;27.80;49.40
37456;DHT22;23316;50.718;7.328;2023-08-24T13:40:27;27.80;49.40
37456;DHT22;23316;50.718;7.328;2023-08-24T13:42:55;27.80;49.60
37456;DHT22;23316;50.718;7.328;2023-08-24T13:45:22;27.70;49.70
37456;DHT22;23316;50.718;7.328;2023-08-24T13:47:49;27.70;49.70
37456;DHT22;23316;50.718;7.328;2023-08-24T13:50:16;27.70;49.60
37456;DHT22;23316;50.718;7.328;2023-08-24T13:52:44;27.60;49.40
37456;DHT22;23316;50.718;7.328;2023-08-24T13:55:12;27.60;49.50
37456;DHT22;23316;50.718;7.328;2023-08-24T13:57:39;27.60;49.80
37456;DHT22;23316;50.718;7.328;2023-08-24T14:00:08;27.50;50.00
37456;DHT22;23316;50.718;7.328;2023-08-24T14:02:36;27.50;50.20
37456;DHT22;23316;50.718;7.328;2023-08-24T14:05:04;27.50;50.40
37456;DHT22;23316;50.718;7.328;2023-08-24T14:07:35;27.50;50.60
37456;DHT22;23316;50.718;7.328;2023-08-24T14:13:26;27.40;50.70
37456;DHT22;23316;50.718;7.328;2023-08-24T14:15:53;27.40;50.80
37456;DHT22;23316;50.718;7.328;2023-08-24T14:18:21;27.40;51.00
37456;DHT22;23316;50.718;7.328;2023-08-24T14:20:49;27.30;51.00
37456;DHT22;23316;50.718;7.328;2023-08-24T14:23:16;27.40;51.10
37456;DHT22;23316;50.718;7.328;2023-08-24T14:25:46;27.30;51.20
37456;DHT22;23316;50.718;7.328;2023-08-24T14:28:13;27.30;51.50
37456;DHT22;23316;50.718;7.328;2023-08-24T14:30:41;27.20;51.40
37456;DHT22;23316;50.718;7.328;2023-08-24T14:33:09;27.30;51.90
37456;DHT22;23316;50.718;7.328;2023-08-24T14:35:36;27.20;51.90
37456;DHT22;23316;50.718;7.328;2023-08-24T14:38:03;27.20;51.80
37456;DHT22;23316;50.718;7.328;2023-08-24T14:40:30;27.10;51.70
37456;DHT22;23316;50.718;7.328;2023-08-24T14:42:58;27.20;51.90
37456;DHT22;23316;50.718;7.328;2023-08-24T14:45:25;27.10;51.90
37456;DHT22;23316;50.718;7.328;2023-08-24T14:47:53;27.10;51.90
37456;DHT22;23316;50.718;7.328;2023-08-24T14:50:21;27.10;51.90
37456;DHT22;23316;50.718;7.328;2023-08-24T14:53:22;27.10;52.20
37456;DHT22;23316;50.718;7.328;2023-08-24T14:55:49;27.00;52.00
37456;DHT22;23316;50.718;7.328;2023-08-24T14:58:16;27.00;52.00
37456;DHT22;23316;50.718;7.328;2023-08-24T15:00:43;27.00;51.70
37456;DHT22;23316;50.718;7.328;2023-08-24T15:03:13;26.90;51.50
37456;DHT22;23316;50.718;7.328;2023-08-24T15:05:43;26.90;51.60
37456;DHT22;23316;50.718;7.328;2023-08-24T15:08:13;26.90;51.80
37456;DHT22;23316;50.718;7.328;2023-08-24T15:10:41;26.90;52.00
37456;DHT22;23316;50.718;7.328;2023-08-24T15:13:08;26.90;52.00
37456;DHT22;23316;50.718;7.328;2023-08-24T15:15:36;26.80;51.90
37456;DHT22;23316;50.718;7.328;2023-08-24T15:18:04;26.80;51.90
37456;DHT22;23316;50.718;7.328;2023-08-24T15:20:33;26.80;52.10
37456;DHT22;23316;50.718;7.328;2023-08-24T15:23:00;26.80;52.20
37456;DHT22;23316;50.718;7.328;2023-08-24T15:25:28;26.80;52.40
37456;DHT22;23316;50.718;7.328;2023-08-24T15:27:55;26.70;52.30
37456;DHT22;23316;50.718;7.328;2023-08-24T15:30:23;26.70;52.00
37456;DHT22;23316;50.718;7.328;2023-08-24T15:32:51;26.60;51.90
37456;DHT22;23316;50.718;7.328;2023-08-24T15:35:18;26.60;52.00
37456;DHT22;23316;50.718;7.328;2023-08-24T15:37:47;26.60;52.00
37456;DHT22;23316;50.718;7.328;2023-08-24T15:40:14;26.50;52.40
37456;DHT22;23316;50.718;7.328;2023-08-24T15:42:42;26.50;52.50
37456;DHT22;23316;50.718;7.328;2023-08-24T15:45:10;26.50;52.40
37456;DHT22;23316;50.718;7.328;2023-08-24T15:47:37;26.40;52.10